Time;durP1;ratioP1;P1;durP2;ratioP2;P2;SDS_P1;SDS_P2;PMS_P1;PMS_P2;Temp;Humidity;BMP_temperature;BMP_pressure;BME280_temperature;BME280_humidity;BME280_pressure;Samples;Min_cycle;Max_cycle;Signal;HPM_P1;HPM_P2
2024/03/03 00:01:59;;;;;;;71.78;24.95;;;8.00;89.90;;;;;;5056165;28;20037;-60
2024/03/03 00:04:24;;;;;;;65.00;22.80;;;8.00;89.90;;;;;;5057588;28;20507;-62
2024/03/03 00:06:50;;;;;;;56.45;23.58;;;8.00;90.30;;;;;;5060251;28;20041;-60
2024/03/03 00:09:17;;;;;;;85.70;24.27;;;8.00;90.00;;;;;;5064248;28;20060;-62
2024/03/03 00:11:42;;;;;;;87.30;23.52;;;8.00;90.00;;;;;;5061569;28;20064;-62
2024/03/03 00:14:08;;;;;;;114.75;23.38;;;8.00;90.00;;;;;;5059831;28;20436;-60
2024/03/03 00:16:34;;;;;;;62.97;22.08;;;8.00;90.10;;;;;;5063216;28;20476;-61
2024/03/03 00:18:59;;;;;;;111.22;23.58;;;8.00;90.10;;;;;;5059123;28;20049;-60
2024/03/03 00:21:26;;;;;;;112.43;24.10;;;8.00;90.20;;;;;;5055238;28;20036;-61
2024/03/03 00:23:51;;;;;;;125.88;24.98;;;7.90;90.10;;;;;;5062894;28;20127;-61
2024/03/03 00:26:17;;;;;;;97.72;23.63;;;7.90;90.20;;;;;;5054611;28;20123;-62
2024/03/03 00:28:43;;;;;;;98.53;21.60;;;7.90;90.30;;;;;;5057098;28;20044;-61
2024/03/03 00:31:09;;;;;;;150.93;23.40;;;7.90;90.40;;;;;;5058021;28;20083;-61
2024/03/03 00:33:35;;;;;;;106.68;23.80;;;7.90;90.40;;;;;;5057928;28;20496;-61
2024/03/03 00:36:00;;;;;;;141.73;23.08;;;7.90;90.40;;;;;;5054974;28;20039;-61
2024/03/03 00:38:26;;;;;;;82.82;23.25;;;7.80;90.40;;;;;;5052447;28;20506;-62
2024/03/03 00:40:52;;;;;;;76.47;22.30;;;7.80;90.50;;;;;;5055604;28;20028;-62
2024/03/03 00:43:17;;;;;;;106.85;21.42;;;7.80;90.50;;;;;;5056787;28;20045;-61
2024/03/03 00:45:43;;;;;;;96.38;21.95;;;7.80;90.80;;;;;;5054461;28;20412;-61
2024/03/03 00:48:09;;;;;;;62.75;21.10;;;7.80;90.50;;;;;;5060690;28;20517;-60
2024/03/03 00:50:34;;;;;;;60.13;21.00;;;7.80;90.60;;;;;;5056201;28;20492;-59
2024/03/03 00:53:00;;;;;;;100.28;21.10;;;7.80;90.60;;;;;;5053231;28;20636;-61
2024/03/03 00:55:26;;;;;;;66.15;19.48;;;7.80;90.70;;;;;;5062067;28;20032;-62
2024/03/03 00:57:52;;;;;;;90.80;21.00;;;7.70;90.70;;;;;;5055210;28;20551;-62
2024/03/03 01:00:18;;;;;;;62.33;19.80;;;7.70;90.60;;;;;;5055116;28;20033;-61
2024/03/03 01:02:44;;;;;;;85.53;19.80;;;7.80;90.70;;;;;;5054659;28;20041;-62
2024/03/03 01:05:10;;;;;;;78.25;20.85;;;7.80;90.70;;;;;;5054084;28;20041;-62
2024/03/03 01:07:38;;;;;;;124.60;21.52;;;7.80;90.70;;;;;;5059261;28;20037;-61
2024/03/03 01:10:05;;;;;;;65.32;20.85;;;7.80;90.60;;;;;;5060779;28;20120;-61
2024/03/03 01:12:30;;;;;;;93.10;21.02;;;7.80;90.70;;;;;;5059440;28;20472;-62
2024/03/03 01:14:56;;;;;;;67.95;20.15;;;7.80;90.70;;;;;;5055964;28;20044;-62
2024/03/03 01:17:22;;;;;;;55.78;19.00;;;7.70;90.70;;;;;;5058696;28;20107;-62
2024/03/03 01:19:47;;;;;;;77.38;20.50;;;7.80;90.80;;;;;;5068803;28;20047;-62
2024/03/03 01:22:13;;;;;;;48.78;20.30;;;7.70;90.80;;;;;;5062067;28;20539;-61
2024/03/03 01:24:39;;;;;;;136.00;21.85;;;7.70;90.80;;;;;;5064332;28;20041;-61
2024/03/03 01:27:04;;;;;;;75.40;20.45;;;7.80;90.80;;;;;;5058576;28;20047;-62
2024/03/03 01:29:30;;;;;;;53.90;20.73;;;7.70;90.80;;;;;;5061146;28;20029;-61
2024/03/03 01:31:56;;;;;;;37.88;19.27;;;7.70;90.80;;;;;;5057892;28;20488;-62
2024/03/03 01:34:25;;;;;;;49.60;20.63;;;7.70;91.20;;;;;;5064921;28;20040;-62
2024/03/03 01:36:54;;;;;;;87.85;20.80;;;7.70;90.80;;;;;;5062958;28;20124;-60
2024/03/03 01:39:20;;;;;;;54.65;20.25;;;7.80;90.90;;;;;;5070411;28;20530;-60
2024/03/03 01:41:46;;;;;;;70.50;20.00;;;7.80;90.90;;;;;;5054446;28;20044;-62
2024/03/03 01:44:12;;;;;;;111.30;21.55;;;7.80;90.90;;;;;;5055311;28;20063;-61
2024/03/03 01:46:38;;;;;;;76.05;20.23;;;7.80;90.90;;;;;;5062068;28;20071;-61
2024/03/03 01:49:06;;;;;;;66.47;19.77;;;7.70;90.80;;;;;;5060851;28;20056;-62
2024/03/03 01:51:32;;;;;;;49.60;19.25;;;7.80;90.80;;;;;;5066756;28;20427;-60
2024/03/03 01:53:57;;;;;;;65.47;20.02;;;7.80;90.80;;;;;;5057622;28;20032;-61
2024/03/03 01:56:26;;;;;;;130.70;21.05;;;7.80;90.80;;;;;;5065578;28;20032;-61
2024/03/03 01:58:52;;;;;;;53.60;20.35;;;7.80;90.90;;;;;;5055523;28;20032;-61
2024/03/03 02:01:20;;;;;;;146.00;21.75;;;7.80;90.80;;;;;;5056456;28;20309;-62
2024/03/03 02:03:46;;;;;;;62.53;20.15;;;7.80;90.80;;;;;;5062312;28;20120;-61
2024/03/03 02:06:14;;;;;;;50.75;20.30;;;7.80;90.80;;;;;;5053842;28;20459;-60
2024/03/03 02:08:41;;;;;;;102.28;20.00;;;7.80;90.80;;;;;;5059045;28;20036;-62
2024/03/03 02:11:07;;;;;;;80.05;20.30;;;7.80;90.80;;;;;;5050514;28;20053;-61
2024/03/03 02:13:33;;;;;;;67.50;21.08;;;7.80;90.80;;;;;;5058022;28;20048;-60
2024/03/03 02:15:59;;;;;;;146.70;20.85;;;7.80;90.80;;;;;;5057041;28;20029;-62
2024/03/03 02:18:24;;;;;;;49.75;19.48;;;7.80;90.80;;;;;;5052119;28;20090;-61
2024/03/03 02:20:50;;;;;;;128.40;21.10;;;7.80;90.80;;;;;;5056647;28;20116;-62
2024/03/03 02:23:15;;;;;;;60.90;19.55;;;7.80;90.80;;;;;;5056962;28;20043;-61
2024/03/03 02:25:42;;;;;;;92.35;21.83;;;7.70;90.70;;;;;;5057862;28;20143;-62
2024/03/03 02:28:09;;;;;;;71.50;20.88;;;7.70;90.80;;;;;;5060274;28;20522;-61
2024/03/03 02:30:35;;;;;;;72.40;20.75;;;7.70;90.80;;;;;;5060820;28;20507;-62
2024/03/03 02:33:01;;;;;;;56.13;20.45;;;7.70;90.80;;;;;;5060395;28;20244;-61
2024/03/03 02:35:27;;;;;;;63.72;20.00;;;7.70;90.90;;;;;;5054228;28;20040;-61
2024/03/03 02:37:52;;;;;;;81.53;19.92;;;7.70;90.90;;;;;;5052334;28;20040;-62
2024/03/03 02:40:18;;;;;;;79.70;20.48;;;7.70;90.90;;;;;;5053114;28;20037;-60
2024/03/03 02:42:43;;;;;;;78.28;21.17;;;7.60;90.90;;;;;;5056104;28;20515;-62
2024/03/03 02:45:09;;;;;;;66.72;20.42;;;7.60;90.90;;;;;;5054056;28;20040;-62
2024/03/03 02:47:35;;;;;;;79.80;21.05;;;7.60;91.00;;;;;;5057610;28;20059;-62
2024/03/03 02:50:00;;;;;;;69.35;21.02;;;7.60;91.00;;;;;;5057079;28;20100;-61
2024/03/03 02:52:26;;;;;;;59.58;20.92;;;7.60;91.00;;;;;;5059550;28;20060;-61
2024/03/03 02:54:52;;;;;;;156.63;20.80;;;7.60;91.00;;;;;;5055233;28;20504;-61
2024/03/03 02:57:18;;;;;;;71.32;20.40;;;7.60;91.00;;;;;;5054163;28;20035;-60
2024/03/03 02:59:43;;;;;;;141.57;20.95;;;7.60;91.00;;;;;;5049634;28;20559;-61
2024/03/03 03:02:09;;;;;;;99.72;21.05;;;7.60;91.00;;;;;;5049322;28;20043;-61
2024/03/03 03:04:34;;;;;;;145.20;21.80;;;7.70;91.00;;;;;;5056384;28;20029;-61
2024/03/03 03:07:00;;;;;;;42.38;19.83;;;7.70;91.00;;;;;;5057099;28;20652;-62
2024/03/03 03:09:25;;;;;;;49.35;20.58;;;7.60;91.00;;;;;;5053604;28;20037;-61
2024/03/03 03:11:51;;;;;;;131.50;22.25;;;7.60;91.00;;;;;;5049361;28;20404;-62
2024/03/03 03:14:17;;;;;;;149.63;22.80;;;7.70;91.10;;;;;;5050945;28;20549;-59
2024/03/03 03:16:42;;;;;;;85.53;20.15;;;7.60;91.10;;;;;;5050347;28;20083;-61
2024/03/03 03:19:08;;;;;;;58.28;19.38;;;7.60;91.00;;;;;;5050858;28;20098;-61
2024/03/03 03:21:34;;;;;;;49.83;20.35;;;7.70;91.10;;;;;;5049750;28;20317;-61
2024/03/03 03:24:00;;;;;;;75.50;20.63;;;7.70;91.20;;;;;;5056102;28;20396;-62
2024/03/03 03:26:26;;;;;;;142.85;21.35;;;7.60;91.20;;;;;;5058796;28;20519;-61
2024/03/03 03:28:51;;;;;;;67.55;21.02;;;7.60;91.20;;;;;;5057458;28;20049;-62
2024/03/03 03:31:17;;;;;;;56.97;20.17;;;7.70;91.20;;;;;;5052248;28;20029;-62
2024/03/03 03:33:42;;;;;;;61.40;20.65;;;7.70;91.20;;;;;;5075795;28;20036;-61
2024/03/03 03:36:09;;;;;;;78.55;21.20;;;7.70;91.20;;;;;;5062401;28;20048;-60
2024/03/03 03:38:35;;;;;;;95.63;19.10;;;7.70;91.10;;;;;;5057880;28;20040;-61
2024/03/03 03:41:04;;;;;;;170.02;20.65;;;7.80;91.10;;;;;;5055918;28;20031;-60
2024/03/03 03:43:30;;;;;;;152.00;19.48;;;7.80;91.10;;;;;;5060387;28;20029;-61
2024/03/03 03:45:55;;;;;;;69.82;18.08;;;7.80;91.00;;;;;;5060240;28;20039;-62
2024/03/03 03:48:23;;;;;;;66.78;18.50;;;7.70;90.90;;;;;;5058912;28;20040;-61
2024/03/03 03:50:49;;;;;;;90.35;18.08;;;7.70;90.90;;;;;;5057158;28;20042;-60
2024/03/03 03:53:14;;;;;;;70.65;17.63;;;7.70;90.90;;;;;;5053851;28;20396;-61
2024/03/03 03:55:40;;;;;;;95.95;19.52;;;7.60;90.90;;;;;;5060318;28;20036;-61
2024/03/03 03:58:05;;;;;;;50.30;16.90;;;7.70;91.00;;;;;;5060112;28;20528;-61
2024/03/03 04:00:31;;;;;;;77.78;17.58;;;7.60;90.90;;;;;;5060213;28;20032;-62
2024/03/03 04:02:57;;;;;;;93.53;18.95;;;7.60;90.90;;;;;;5066469;28;20036;-60
2024/03/03 04:05:22;;;;;;;108.97;17.75;;;7.60;90.90;;;;;;5056682;28;20089;-60
2024/03/03 04:07:48;;;;;;;52.83;18.02;;;7.60;91.00;;;;;;5055310;28;20051;-61
2024/03/03 04:10:17;;;;;;;81.20;17.45;;;7.60;90.90;;;;;;5062021;28;20025;-62
2024/03/03 04:12:44;;;;;;;77.88;17.83;;;7.60;90.90;;;;;;5058555;28;20033;-61
2024/03/03 04:15:11;;;;;;;65.03;17.75;;;7.60;90.90;;;;;;5063713;28;20123;-60
2024/03/03 04:17:36;;;;;;;79.38;18.48;;;7.60;90.80;;;;;;5056558;28;20078;-61
2024/03/03 04:20:04;;;;;;;64.65;18.45;;;7.50;90.80;;;;;;5056151;28;20049;-61
2024/03/03 04:22:30;;;;;;;69.53;18.48;;;7.50;90.90;;;;;;5053004;28;20029;-62
2024/03/03 04:24:55;;;;;;;66.03;18.58;;;7.50;91.00;;;;;;5054870;28;20040;-60
2024/03/03 04:27:21;;;;;;;78.03;18.60;;;7.50;90.90;;;;;;5061214;28;20029;-62
2024/03/03 04:29:47;;;;;;;42.30;17.65;;;7.40;90.90;;;;;;5058114;28;20066;-61
2024/03/03 04:32:13;;;;;;;84.03;18.15;;;7.40;91.00;;;;;;5062062;28;20021;-59
2024/03/03 04:34:39;;;;;;;89.95;19.27;;;7.40;91.00;;;;;;5053430;28;20549;-61
2024/03/03 04:37:08;;;;;;;35.17;17.88;;;7.40;91.00;;;;;;5058843;28;20025;-59
2024/03/03 04:39:35;;;;;;;78.72;17.75;;;7.40;91.00;;;;;;5058994;28;20060;-61
2024/03/03 04:42:02;;;;;;;119.50;19.15;;;7.40;91.00;;;;;;5054154;28;20028;-61
2024/03/03 04:44:28;;;;;;;77.50;18.20;;;7.40;91.00;;;;;;5059279;28;20036;-61
2024/03/03 04:46:54;;;;;;;62.58;17.40;;;7.30;90.90;;;;;;5060230;28;20033;-61
2024/03/03 04:49:20;;;;;;;34.15;17.10;;;7.30;90.90;;;;;;5057873;28;20082;-62
2024/03/03 04:51:45;;;;;;;83.65;17.95;;;7.30;91.00;;;;;;5060619;28;20032;-61
2024/03/03 04:54:11;;;;;;;62.75;18.42;;;7.20;91.00;;;;;;5061111;28;20546;-62
2024/03/03 04:56:36;;;;;;;43.33;16.83;;;7.20;91.00;;;;;;5061023;28;20054;-62
2024/03/03 04:59:02;;;;;;;96.15;18.50;;;7.20;91.00;;;;;;5060886;28;20495;-61
2024/03/03 05:01:28;;;;;;;36.22;16.20;;;7.20;91.00;;;;;;5056232;28;20063;-62
2024/03/03 05:03:53;;;;;;;46.38;17.23;;;7.10;91.00;;;;;;5061176;28;20606;-61
2024/03/03 05:06:19;;;;;;;41.00;16.98;;;7.10;91.00;;;;;;5059745;28;20093;-60
2024/03/03 05:08:45;;;;;;;32.22;16.85;;;7.10;91.00;;;;;;5062895;28;20033;-60
2024/03/03 05:11:10;;;;;;;56.55;18.52;;;7.10;91.10;;;;;;5054879;28;20096;-62
2024/03/03 05:13:37;;;;;;;43.17;17.55;;;7.10;91.10;;;;;;5058438;28;20075;-61
2024/03/03 05:16:03;;;;;;;65.20;18.25;;;7.10;91.20;;;;;;5054757;28;20036;-60
2024/03/03 05:18:29;;;;;;;38.55;18.00;;;7.10;91.20;;;;;;5056687;28;20044;-61
2024/03/03 05:20:55;;;;;;;46.22;18.20;;;7.10;91.30;;;;;;5058165;28;20456;-61
2024/03/03 05:23:20;;;;;;;32.10;18.83;;;7.10;91.30;;;;;;5060049;28;20778;-61
2024/03/03 05:25:46;;;;;;;56.28;18.77;;;7.10;91.20;;;;;;5057269;28;20400;-61
2024/03/03 05:28:11;;;;;;;55.92;18.17;;;7.10;91.20;;;;;;5056758;28;20123;-60
2024/03/03 05:30:39;;;;;;;45.80;16.80;;;7.10;91.10;;;;;;5056357;28;20580;-62
2024/03/03 05:33:06;;;;;;;28.73;16.73;;;7.10;91.10;;;;;;5063056;28;20041;-62
2024/03/03 05:35:31;;;;;;;34.17;17.30;;;7.10;91.20;;;;;;5051778;28;20083;-62
2024/03/03 05:37:57;;;;;;;55.42;17.85;;;7.10;91.10;;;;;;5057742;28;20033;-62
2024/03/03 05:40:22;;;;;;;106.82;17.80;;;7.00;91.10;;;;;;5055327;28;20040;-61
2024/03/03 05:42:48;;;;;;;35.67;15.85;;;7.10;91.10;;;;;;5059960;28;20047;-61
2024/03/03 05:45:14;;;;;;;41.53;16.67;;;7.00;91.10;;;;;;5059611;28;20521;-62
2024/03/03 05:47:39;;;;;;;31.70;16.05;;;7.00;91.10;;;;;;5059498;28;20115;-62
2024/03/03 05:50:06;;;;;;;42.35;16.90;;;7.00;91.20;;;;;;5057995;28;20022;-61
2024/03/03 05:52:32;;;;;;;32.30;16.75;;;7.00;91.20;;;;;;5058156;28;20059;-62
2024/03/03 05:54:57;;;;;;;34.67;15.98;;;7.00;91.20;;;;;;5062633;28;20052;-62
2024/03/03 05:57:23;;;;;;;31.58;16.33;;;7.00;91.20;;;;;;5055407;28;20033;-61
2024/03/03 05:59:48;;;;;;;71.47;16.85;;;7.00;91.20;;;;;;5059202;28;20373;-61
2024/03/03 06:02:14;;;;;;;181.70;23.23;;;7.00;91.20;;;;;;5055304;28;20463;-62
2024/03/03 06:04:40;;;;;;;62.33;17.45;;;7.00;91.10;;;;;;5060355;28;20040;-62
2024/03/03 06:07:05;;;;;;;48.55;15.77;;;7.00;91.00;;;;;;5061608;28;20415;-62
2024/03/03 06:09:31;;;;;;;32.58;16.42;;;7.00;91.00;;;;;;5053503;28;20040;-62
2024/03/03 06:12:01;;;;;;;117.75;16.77;;;7.00;91.00;;;;;;5052128;28;20127;-62
2024/03/03 06:14:27;;;;;;;37.20;15.98;;;7.00;91.00;;;;;;5054752;28;20024;-62
2024/03/03 06:16:53;;;;;;;55.13;16.35;;;7.00;91.00;;;;;;5053378;28;20134;-62
2024/03/03 06:19:18;;;;;;;58.97;17.00;;;7.00;91.10;;;;;;5051848;28;20029;-62
2024/03/03 06:21:49;;;;;;;82.90;17.75;;;7.00;91.10;;;;;;5058325;28;20078;-61
2024/03/03 06:24:18;;;;;;;63.38;16.65;;;6.90;91.00;;;;;;5058077;28;20562;-62
2024/03/03 06:26:43;;;;;;;36.28;15.98;;;6.90;90.80;;;;;;5053564;28;21519;-60
2024/03/03 06:29:09;;;;;;;50.90;15.90;;;6.90;90.90;;;;;;5054385;28;20028;-61
2024/03/03 06:31:35;;;;;;;35.03;15.77;;;6.90;91.00;;;;;;5052888;28;20061;-62
2024/03/03 06:34:00;;;;;;;55.08;16.27;;;6.90;91.10;;;;;;5054221;28;20039;-62
2024/03/03 06:36:26;;;;;;;67.22;16.00;;;6.80;91.10;;;;;;5050307;28;20124;-61
2024/03/03 06:38:51;;;;;;;77.63;15.20;;;6.80;91.10;;;;;;5051356;28;20029;-62
2024/03/03 06:41:17;;;;;;;107.40;16.10;;;6.80;91.00;;;;;;5051305;28;20059;-60
2024/03/03 06:43:44;;;;;;;58.28;14.50;;;6.80;90.90;;;;;;5052744;28;20476;-62
2024/03/03 06:46:10;;;;;;;73.97;15.13;;;6.80;91.00;;;;;;5052744;28;20037;-62
2024/03/03 06:48:37;;;;;;;138.38;17.67;;;6.70;91.00;;;;;;5052338;28;20112;-62
2024/03/03 06:51:03;;;;;;;63.42;15.73;;;6.70;91.10;;;;;;5047314;28;20029;-60
2024/03/03 06:53:28;;;;;;;30.27;15.25;;;6.70;91.10;;;;;;5046416;28;20500;-62
2024/03/03 06:55:54;;;;;;;86.88;16.58;;;6.60;91.20;;;;;;5049405;28;20040;-62
2024/03/03 06:58:19;;;;;;;52.97;15.65;;;6.60;91.30;;;;;;5059724;28;20446;-62
2024/03/03 07:00:45;;;;;;;49.15;14.20;;;6.60;91.30;;;;;;5055926;28;20044;-61
2024/03/03 07:05:36;;;;;;;61.58;17.52;;;6.70;91.40;;;;;;5057508;28;20118;-61
2024/03/03 07:08:03;;;;;;;98.22;16.13;;;6.70;91.40;;;;;;5063173;28;20143;-61
2024/03/03 07:10:30;;;;;;;81.75;16.05;;;6.70;91.40;;;;;;5058608;28;20127;-61
2024/03/03 07:12:56;;;;;;;85.40;17.55;;;6.60;91.40;;;;;;5057287;28;20033;-61
2024/03/03 07:15:21;;;;;;;74.35;16.77;;;6.70;91.50;;;;;;5061762;28;20523;-62
2024/03/03 07:17:48;;;;;;;87.10;16.08;;;6.70;91.50;;;;;;5057989;28;20470;-61
2024/03/03 07:20:14;;;;;;;64.30;15.80;;;6.70;91.50;;;;;;5064163;28;20040;-61
2024/03/03 07:22:39;;;;;;;35.95;15.65;;;6.70;91.60;;;;;;5062188;28;20534;-62
2024/03/03 07:25:05;;;;;;;52.80;16.48;;;6.70;92.00;;;;;;5062561;28;20033;-62
2024/03/03 07:27:31;;;;;;;70.03;16.85;;;6.70;91.70;;;;;;5060630;28;20033;-61
2024/03/03 07:29:57;;;;;;;59.80;14.95;;;6.80;91.70;;;;;;5058934;28;20044;-60
2024/03/03 07:32:23;;;;;;;36.58;14.48;;;6.80;91.70;;;;;;5063578;28;20060;-62
2024/03/03 07:34:49;;;;;;;50.10;14.75;;;6.80;91.60;;;;;;5059863;28;20060;-61
2024/03/03 07:37:16;;;;;;;66.90;16.30;;;6.80;91.50;;;;;;5057996;28;20506;-62
2024/03/03 07:39:42;;;;;;;32.70;15.07;;;6.80;91.90;;;;;;5060960;28;20036;-62
2024/03/03 07:42:08;;;;;;;67.85;15.70;;;6.80;91.80;;;;;;5062454;28;20504;-62
2024/03/03 07:44:34;;;;;;;44.03;14.60;;;6.80;91.50;;;;;;5064665;28;20041;-59
2024/03/03 07:46:59;;;;;;;50.15;15.77;;;6.80;91.50;;;;;;5061942;28;20406;-62
2024/03/03 07:49:25;;;;;;;33.80;14.73;;;6.80;91.40;;;;;;5065009;28;20048;-62
2024/03/03 07:51:50;;;;;;;31.95;14.40;;;6.80;91.50;;;;;;5056983;28;20493;-61
2024/03/03 07:54:16;;;;;;;35.28;13.73;;;6.80;91.40;;;;;;5051776;28;20033;-62
2024/03/03 07:56:42;;;;;;;59.05;14.70;;;6.80;91.40;;;;;;5063354;28;20028;-62
2024/03/03 07:59:08;;;;;;;28.02;14.32;;;6.80;91.40;;;;;;5043233;28;20039;-62
2024/03/03 08:01:35;;;;;;;44.05;15.18;;;6.70;91.30;;;;;;5046706;28;20028;-62
2024/03/03 08:04:01;;;;;;;78.78;16.08;;;6.70;91.40;;;;;;5055059;28;20091;-62
2024/03/03 08:06:26;;;;;;;40.80;14.65;;;6.70;91.50;;;;;;5051157;28;20522;-63
2024/03/03 08:08:52;;;;;;;24.58;14.30;;;6.70;91.50;;;;;;5049107;28;20126;-63
2024/03/03 08:11:17;;;;;;;26.70;12.63;;;6.70;91.50;;;;;;5054843;28;20048;-62
2024/03/03 08:13:43;;;;;;;33.65;13.60;;;6.70;91.50;;;;;;5058612;28;20078;-62
2024/03/03 08:16:09;;;;;;;35.53;14.27;;;6.70;91.50;;;;;;5056400;28;20325;-62
2024/03/03 08:18:34;;;;;;;39.70;13.07;;;6.70;91.50;;;;;;5060212;28;20041;-61
2024/03/03 08:21:02;;;;;;;49.97;14.65;;;6.70;91.50;;;;;;5062972;28;20040;-63
2024/03/03 08:23:27;;;;;;;32.88;12.80;;;6.70;91.40;;;;;;5059534;28;20127;-63
2024/03/03 08:25:53;;;;;;;37.90;13.38;;;6.70;91.40;;;;;;5060755;28;20170;-62
2024/03/03 08:28:19;;;;;;;25.10;13.80;;;6.60;91.30;;;;;;5058640;28;20056;-62
2024/03/03 08:30:44;;;;;;;24.05;14.20;;;6.60;91.40;;;;;;5061190;28;20491;-63
2024/03/03 08:33:10;;;;;;;61.08;14.95;;;6.60;91.40;;;;;;5058304;28;20064;-62
2024/03/03 08:35:35;;;;;;;56.10;14.88;;;6.60;91.50;;;;;;5064467;28;20087;-62
2024/03/03 08:38:01;;;;;;;65.47;14.57;;;6.60;91.50;;;;;;5058887;28;20044;-62
2024/03/03 08:40:26;;;;;;;36.10;14.40;;;6.60;91.50;;;;;;5064058;28;20044;-63
2024/03/03 08:42:52;;;;;;;30.42;14.45;;;6.60;91.60;;;;;;5067730;28;20086;-63
2024/03/03 08:45:18;;;;;;;28.33;14.45;;;6.60;91.70;;;;;;5061319;28;20044;-62
2024/03/03 08:47:44;;;;;;;45.38;14.25;;;6.60;91.80;;;;;;5063312;28;20567;-62
2024/03/03 08:50:10;;;;;;;18.65;13.00;;;6.60;91.80;;;;;;5061468;28;20044;-62
2024/03/03 08:52:36;;;;;;;21.30;14.30;;;6.60;91.80;;;;;;5060994;28;20035;-62
2024/03/03 08:55:03;;;;;;;28.20;14.05;;;6.70;91.90;;;;;;5059296;28;20119;-62
2024/03/03 08:57:29;;;;;;;20.52;14.52;;;6.70;92.30;;;;;;5062353;28;20033;-62
2024/03/03 08:59:55;;;;;;;23.95;13.32;;;6.80;91.90;;;;;;5064251;28;20111;-62
2024/03/03 09:02:21;;;;;;;18.10;12.90;;;6.80;91.90;;;;;;5062469;28;20448;-62
2024/03/03 09:04:47;;;;;;;19.95;13.57;;;6.80;91.80;;;;;;5063648;28;20439;-62
2024/03/03 09:07:13;;;;;;;21.23;14.07;;;6.90;91.90;;;;;;5075362;28;20045;-62
2024/03/03 09:09:39;;;;;;;30.42;13.43;;;6.90;91.80;;;;;;5060968;28;20041;-62
2024/03/03 09:12:05;;;;;;;17.42;13.32;;;6.90;91.80;;;;;;5062589;28;20032;-62
2024/03/03 09:14:34;;;;;;;16.38;12.57;;;6.90;91.70;;;;;;5065825;28;20036;-60
2024/03/03 09:16:59;;;;;;;27.02;13.38;;;7.00;91.70;;;;;;5054468;28;20032;-62
2024/03/03 09:19:26;;;;;;;24.67;13.82;;;6.90;91.70;;;;;;5065379;28;20066;-61
2024/03/03 09:21:52;;;;;;;18.65;13.15;;;7.00;91.70;;;;;;5055266;28;20504;-62
2024/03/03 09:24:19;;;;;;;23.35;13.85;;;7.00;91.70;;;;;;5058437;28;20255;-61
2024/03/03 09:26:45;;;;;;;25.85;13.57;;;7.10;91.70;;;;;;5062562;28;20123;-62
2024/03/03 09:29:11;;;;;;;17.33;13.07;;;7.10;91.70;;;;;;5061234;28;20029;-62
2024/03/03 09:31:36;;;;;;;23.48;14.10;;;7.20;91.70;;;;;;5056751;28;20336;-62
2024/03/03 09:34:02;;;;;;;19.02;13.30;;;7.20;91.60;;;;;;5063009;28;20029;-62
2024/03/03 09:36:27;;;;;;;19.92;14.23;;;7.20;91.60;;;;;;5061466;28;20175;-62
2024/03/03 09:38:53;;;;;;;18.85;12.63;;;7.20;91.50;;;;;;5058618;28;20037;-62
2024/03/03 09:41:19;;;;;;;19.23;13.38;;;7.30;91.50;;;;;;5060567;28;20608;-63
2024/03/03 09:43:52;;;;;;;19.50;14.18;;;7.30;91.60;;;;;;5057822;28;20348;-63
2024/03/03 09:46:19;;;;;;;18.83;13.65;;;7.30;91.70;;;;;;5052052;28;20587;-63
2024/03/03 09:48:45;;;;;;;18.98;13.75;;;7.30;91.60;;;;;;5059223;28;20037;-63
2024/03/03 09:51:12;;;;;;;18.92;13.75;;;7.40;91.70;;;;;;5066501;28;20424;-62
2024/03/03 09:53:39;;;;;;;19.52;14.05;;;7.50;91.70;;;;;;5058680;28;20033;-62
2024/03/03 09:56:07;;;;;;;19.77;14.48;;;7.50;91.80;;;;;;5061957;28;20033;-63
2024/03/03 09:58:33;;;;;;;17.30;13.27;;;7.50;91.80;;;;;;5057351;28;20045;-63
2024/03/03 10:01:00;;;;;;;20.08;14.82;;;7.60;91.70;;;;;;5067297;28;20402;-61
2024/03/03 10:03:28;;;;;;;18.60;14.18;;;7.60;91.60;;;;;;5062453;28;20056;-60
2024/03/03 10:05:55;;;;;;;18.45;13.35;;;7.60;91.50;;;;;;5058988;28;20056;-62
2024/03/03 10:08:22;;;;;;;19.98;14.73;;;7.70;91.70;;;;;;5061576;28;20037;-61
2024/03/03 10:10:49;;;;;;;19.92;14.57;;;7.70;91.60;;;;;;5063279;28;20039;-62
2024/03/03 10:13:19;;;;;;;19.45;14.55;;;7.80;91.60;;;;;;5062100;28;20408;-60
2024/03/03 10:15:47;;;;;;;17.90;14.07;;;7.80;91.60;;;;;;5063487;28;20035;-62
2024/03/03 10:18:13;;;;;;;19.95;14.57;;;7.80;91.50;;;;;;5057922;28;20287;-60
2024/03/03 10:20:40;;;;;;;19.88;14.43;;;7.90;91.40;;;;;;5061334;28;20025;-62
2024/03/03 10:23:05;;;;;;;18.30;13.88;;;7.90;91.40;;;;;;5062394;28;20040;-62
2024/03/03 10:25:31;;;;;;;19.63;14.57;;;7.90;91.40;;;;;;5063436;28;20420;-62
2024/03/03 10:28:12;;;;;;;20.63;15.05;;;7.90;91.40;;;;;;5059501;28;20435;-62
2024/03/03 10:30:39;;;;;;;19.73;14.45;;;8.00;91.40;;;;;;5060167;28;20037;-62
2024/03/03 10:33:05;;;;;;;20.70;15.07;;;8.00;91.30;;;;;;5051394;28;20035;-60
2024/03/03 10:35:31;;;;;;;20.42;14.82;;;8.00;91.20;;;;;;5055645;28;20032;-63
2024/03/03 10:38:01;;;;;;;20.60;14.77;;;8.10;91.20;;;;;;5057723;28;20044;-62
2024/03/03 10:40:28;;;;;;;20.40;15.32;;;8.10;91.20;;;;;;5056980;28;20060;-63
2024/03/03 10:42:54;;;;;;;21.98;15.18;;;8.10;91.40;;;;;;5056441;28;20492;-62
2024/03/03 10:45:21;;;;;;;21.95;15.95;;;8.10;91.50;;;;;;5063279;28;20043;-62
2024/03/03 10:47:48;;;;;;;20.60;15.10;;;8.20;91.50;;;;;;5057159;28;20035;-61
2024/03/03 10:50:19;;;;;;;19.98;14.50;;;8.30;91.60;;;;;;5058624;28;20033;-62
2024/03/03 10:52:45;;;;;;;21.00;14.88;;;8.40;91.70;;;;;;5058904;28;20025;-63
2024/03/03 10:55:11;;;;;;;19.85;14.20;;;8.50;91.60;;;;;;5061878;28;20040;-62
2024/03/03 10:57:38;;;;;;;18.88;14.18;;;8.50;91.50;;;;;;5060783;28;20029;-62
2024/03/03 11:00:06;;;;;;;17.88;13.38;;;8.60;91.40;;;;;;5057778;28;20580;-62
2024/03/03 11:02:34;;;;;;;18.33;14.02;;;8.70;91.30;;;;;;5056840;28;20038;-62
2024/03/03 11:05:04;;;;;;;20.98;15.60;;;8.80;91.40;;;;;;5057367;28;20108;-62
2024/03/03 11:07:30;;;;;;;20.95;15.15;;;8.90;91.30;;;;;;5063280;28;20031;-63
2024/03/03 11:09:59;;;;;;;20.77;15.52;;;9.00;91.30;;;;;;5056138;28;20336;-60
2024/03/03 11:12:27;;;;;;;18.58;13.88;;;9.00;91.10;;;;;;5053484;28;20032;-62
2024/03/03 11:14:55;;;;;;;18.17;13.80;;;9.10;91.00;;;;;;5049835;28;20108;-62
2024/03/03 11:17:25;;;;;;;17.95;13.70;;;9.10;91.00;;;;;;5050794;28;20079;-63
2024/03/03 11:19:51;;;;;;;17.63;13.05;;;9.20;91.00;;;;;;5052220;28;20650;-63
2024/03/03 11:22:24;;;;;;;17.58;12.57;;;9.30;90.90;;;;;;5052476;28;20049;-63
2024/03/03 11:24:57;;;;;;;16.35;12.82;;;9.30;90.70;;;;;;5048737;28;20477;-62
2024/03/03 11:27:29;;;;;;;17.80;14.23;;;9.40;90.60;;;;;;5058457;28;20068;-63
2024/03/03 11:29:55;;;;;;;16.73;13.20;;;9.50;90.60;;;;;;5052866;28;20407;-63
2024/03/03 11:32:26;;;;;;;16.40;12.93;;;9.50;90.50;;;;;;5056335;28;20033;-63
2024/03/03 11:34:53;;;;;;;16.90;12.77;;;9.60;90.40;;;;;;5057084;28;20032;-63
2024/03/03 11:37:20;;;;;;;16.60;12.77;;;9.70;90.40;;;;;;5062230;28;20123;-62
2024/03/03 11:39:56;;;;;;;17.75;13.70;;;9.70;90.20;;;;;;5050354;28;20045;-62
2024/03/03 11:42:44;;;;;;;17.40;13.23;;;9.80;90.10;;;;;;5052769;28;20037;-62
2024/03/03 11:45:11;;;;;;;19.35;14.63;;;9.80;90.10;;;;;;5055656;28;20128;-62
2024/03/03 11:47:39;;;;;;;18.80;14.35;;;9.90;90.20;;;;;;5061069;28;20037;-63
2024/03/03 11:50:20;;;;;;;17.85;13.80;;;9.90;90.20;;;;;;5059732;28;20028;-62
2024/03/03 11:52:48;;;;;;;17.63;13.80;;;10.00;90.10;;;;;;5057769;28;20306;-62
2024/03/03 11:55:29;;;;;;;17.65;13.98;;;10.00;90.10;;;;;;5061386;28;20028;-62
2024/03/03 11:58:03;;;;;;;18.17;13.93;;;10.00;90.00;;;;;;5065441;28;20029;-61
2024/03/03 12:00:30;;;;;;;17.08;13.32;;;10.10;90.10;;;;;;5064123;28;20033;-62
2024/03/03 12:02:57;;;;;;;16.92;13.23;;;10.10;90.10;;;;;;5061447;28;20035;-60
2024/03/03 12:05:24;;;;;;;17.52;13.73;;;10.20;90.10;;;;;;5059616;28;20040;-63
2024/03/03 12:07:54;;;;;;;16.83;13.20;;;10.20;90.00;;;;;;5062658;28;20048;-61
2024/03/03 12:10:22;;;;;;;17.33;13.27;;;10.30;89.50;;;;;;5060535;28;20463;-63
2024/03/03 12:12:53;;;;;;;16.40;13.45;;;10.40;89.50;;;;;;5062853;28;20117;-62
2024/03/03 12:15:26;;;;;;;16.30;12.50;;;10.40;89.60;;;;;;5058016;28;20564;-63
2024/03/03 12:17:53;;;;;;;20.52;14.73;;;10.40;89.70;;;;;;5060093;28;20033;-62
2024/03/03 12:20:21;;;;;;;17.58;14.43;;;10.40;89.30;;;;;;5060226;28;20108;-63
2024/03/03 12:22:48;;;;;;;19.00;14.38;;;10.50;90.00;;;;;;5062030;28;20033;-62
2024/03/03 12:25:15;;;;;;;17.45;13.43;;;10.60;89.50;;;;;;5063049;28;20029;-63
2024/03/03 12:27:53;;;;;;;19.08;14.32;;;10.60;89.70;;;;;;5066743;28;20029;-63
2024/03/03 12:30:39;;;;;;;16.52;13.10;;;10.60;89.50;;;;;;5057782;28;20658;-62
2024/03/03 12:33:05;;;;;;;18.13;13.90;;;10.70;89.50;;;;;;5057755;28;20029;-62
2024/03/03 12:35:35;;;;;;;16.70;13.02;;;10.70;89.60;;;;;;5065574;28;20033;-61